createdAt,value
2017-12-28T00:00:36.976Z,92.40
2017-12-28T00:03:04.422Z,92.20
2017-12-28T00:05:31.888Z,92.20
2017-12-28T00:07:59.329Z,92.40
2017-12-28T00:10:26.789Z,92.40
2017-12-28T00:12:54.224Z,92.30
2017-12-28T00:15:21.664Z,92.40
2017-12-28T00:17:49.188Z,92.30
2017-12-28T00:20:16.625Z,92.30
2017-12-28T00:22:44.113Z,92.30
2017-12-28T00:25:11.508Z,92.30
2017-12-28T00:27:38.945Z,92.40
2017-12-28T00:30:06.396Z,92.50
2017-12-28T00:32:33.837Z,92.70
2017-12-28T00:35:01.285Z,93.00
2017-12-28T00:37:28.708Z,93.20
2017-12-28T00:39:56.153Z,93.30
2017-12-28T00:42:23.599Z,93.50
2017-12-28T00:44:51.041Z,94.00
2017-12-28T00:47:18.504Z,93.90
2017-12-28T00:49:45.954Z,93.90
2017-12-28T00:52:13.388Z,94.10
2017-12-28T00:54:40.825Z,94.20
2017-12-28T00:57:08.260Z,94.40
2017-12-28T00:59:35.713Z,94.70
2017-12-28T01:02:03.146Z,95.00
2017-12-28T01:04:30.605Z,95.10
2017-12-28T01:06:58.069Z,95.10
2017-12-28T01:09:25.509Z,95.30
2017-12-28T01:11:52.960Z,95.50
2017-12-28T01:14:20.404Z,95.80
2017-12-28T01:16:47.834Z,96.00
2017-12-28T01:19:15.280Z,96.10
2017-12-28T01:21:42.729Z,96.00
2017-12-28T01:24:10.181Z,96.10
2017-12-28T01:26:38.792Z,96.10
2017-12-28T01:29:06.217Z,96.00
2017-12-28T01:31:33.672Z,96.00
2017-12-28T01:34:01.116Z,96.00
2017-12-28T01:36:28.568Z,95.90
2017-12-28T01:38:56.012Z,95.90
2017-12-28T01:41:23.444Z,96.00
2017-12-28T01:43:50.909Z,96.20
2017-12-28T01:46:18.335Z,96.00
2017-12-28T01:48:45.792Z,95.90
2017-12-28T01:51:13.227Z,95.90
2017-12-28T01:53:40.667Z,95.80
2017-12-28T01:56:08.137Z,95.90
2017-12-28T01:58:35.588Z,95.90
2017-12-28T02:01:03.332Z,96.00
2017-12-28T02:03:30.766Z,96.10
2017-12-28T02:05:58.213Z,96.10
2017-12-28T02:08:26.445Z,96.10
2017-12-28T02:10:53.873Z,96.00
2017-12-28T02:13:21.305Z,96.20
2017-12-28T02:15:48.760Z,96.40
2017-12-28T02:18:16.193Z,96.50
2017-12-28T02:20:43.641Z,96.60
2017-12-28T02:23:11.078Z,96.60
2017-12-28T02:25:38.512Z,96.60
2017-12-28T02:28:06.344Z,96.80
2017-12-28T02:30:33.790Z,96.90
2017-12-28T02:33:01.384Z,96.90
2017-12-28T02:35:28.820Z,97.00
2017-12-28T02:37:56.244Z,96.90
2017-12-28T02:40:23.699Z,97.00
2017-12-28T02:42:51.140Z,97.00
2017-12-28T02:45:18.609Z,97.10
2017-12-28T02:47:46.806Z,96.90
2017-12-28T02:50:14.240Z,96.80
2017-12-28T02:52:41.680Z,96.80
2017-12-28T02:55:09.156Z,96.80
2017-12-28T02:57:36.608Z,96.60
2017-12-28T03:00:04.045Z,96.20
2017-12-28T03:02:31.485Z,95.70
2017-12-28T03:04:58.955Z,95.50
2017-12-28T03:07:26.389Z,95.20
2017-12-28T03:09:53.829Z,95.00
2017-12-28T03:12:21.277Z,94.90
2017-12-28T03:14:48.716Z,94.40
2017-12-28T03:17:16.164Z,93.90
2017-12-28T03:19:43.609Z,93.90
2017-12-28T03:22:11.075Z,93.70
2017-12-28T03:24:38.508Z,93.20
2017-12-28T03:27:05.948Z,93.00
2017-12-28T03:29:33.388Z,92.90
2017-12-28T03:32:00.821Z,92.70
2017-12-28T03:34:28.280Z,92.60
2017-12-28T03:36:55.739Z,92.70
2017-12-28T03:39:23.200Z,92.50
2017-12-28T03:41:50.876Z,92.60
2017-12-28T03:44:18.316Z,92.60
2017-12-28T03:46:45.760Z,92.10
2017-12-28T03:49:13.970Z,92.10
2017-12-28T03:51:41.409Z,92.00
2017-12-28T03:54:08.891Z,91.90
2017-12-28T03:56:43.221Z,92.10
2017-12-28T03:59:10.671Z,91.40
2017-12-28T04:01:38.137Z,91.60
2017-12-28T04:04:05.579Z,91.30
2017-12-28T04:06:33.015Z,91.20
2017-12-28T04:09:08.732Z,90.30
2017-12-28T04:11:36.180Z,90.80
2017-12-28T04:14:03.643Z,90.80
2017-12-28T04:16:31.069Z,90.70
2017-12-28T04:18:58.506Z,90.40
2017-12-28T04:21:25.936Z,89.80
2017-12-28T04:23:53.713Z,90.30
2017-12-28T04:26:21.222Z,90.40
2017-12-28T04:28:48.656Z,90.30
2017-12-28T04:31:16.110Z,90.30
2017-12-28T04:33:43.558Z,90.10
2017-12-28T04:36:11.000Z,90.60
2017-12-28T04:38:38.439Z,90.70
2017-12-28T04:41:05.871Z,91.10
2017-12-28T04:43:33.323Z,91.40
2017-12-28T04:46:00.764Z,91.80
2017-12-28T04:48:28.328Z,92.20
2017-12-28T04:50:55.768Z,92.30
2017-12-28T04:53:23.204Z,92.60
2017-12-28T04:55:50.652Z,92.60
2017-12-28T04:58:18.083Z,92.80
2017-12-28T05:00:45.526Z,93.20
2017-12-28T05:03:12.960Z,93.20
2017-12-28T05:05:40.412Z,93.20
2017-12-28T05:08:07.871Z,93.10
2017-12-28T05:10:35.322Z,93.10
2017-12-28T05:13:02.772Z,93.30
2017-12-28T05:15:30.238Z,93.30
2017-12-28T05:17:57.698Z,93.40
2017-12-28T05:20:25.136Z,93.40
2017-12-28T05:22:52.577Z,93.60
2017-12-28T05:25:20.033Z,93.60
2017-12-28T05:27:47.469Z,93.80
2017-12-28T05:30:14.916Z,93.40
2017-12-28T05:32:42.364Z,93.50
2017-12-28T05:35:09.801Z,93.60
2017-12-28T05:37:37.279Z,93.50
2017-12-28T05:40:04.880Z,93.40
2017-12-28T05:42:32.337Z,93.30
2017-12-28T05:44:59.768Z,93.30
2017-12-28T05:47:27.203Z,93.30
2017-12-28T05:49:54.644Z,93.10
2017-12-28T05:52:22.089Z,92.70
2017-12-28T05:54:49.533Z,92.70
2017-12-28T05:57:16.971Z,92.60
2017-12-28T05:59:44.428Z,92.50
2017-12-28T06:02:11.873Z,92.50
2017-12-28T06:04:39.314Z,92.40
2017-12-28T06:07:06.755Z,92.50
2017-12-28T06:09:34.187Z,92.40
2017-12-28T06:12:01.638Z,92.20
2017-12-28T06:14:29.071Z,92.30
2017-12-28T06:16:57.676Z,91.90
2017-12-28T06:19:25.127Z,91.90
2017-12-28T06:21:52.562Z,91.90
2017-12-28T06:24:20.028Z,91.90
2017-12-28T06:26:48.968Z,91.90
2017-12-28T06:29:16.395Z,91.90
2017-12-28T06:31:43.848Z,91.80
2017-12-28T06:34:11.313Z,91.80
2017-12-28T06:36:38.765Z,91.70
2017-12-28T06:39:07.853Z,91.70
2017-12-28T06:41:35.293Z,91.70
2017-12-28T06:44:02.765Z,91.70
2017-12-28T06:46:30.197Z,91.80
2017-12-28T06:48:57.664Z,91.70
2017-12-28T06:51:25.109Z,91.70
2017-12-28T06:53:52.573Z,91.70
2017-12-28T06:56:20.013Z,91.40
2017-12-28T06:58:47.455Z,91.40
2017-12-28T07:01:14.904Z,91.50
2017-12-28T07:03:42.344Z,91.50
2017-12-28T07:06:09.788Z,91.40
2017-12-28T07:08:37.237Z,91.30
2017-12-28T07:11:04.676Z,91.40
2017-12-28T07:13:32.903Z,91.50
2017-12-28T07:16:00.353Z,91.50
2017-12-28T07:18:27.800Z,92.10
2017-12-28T07:20:55.240Z,92.60
2017-12-28T07:23:22.679Z,92.90
2017-12-28T07:25:50.137Z,93.30
2017-12-28T07:28:17.567Z,93.40
2017-12-28T07:30:44.991Z,93.30
2017-12-28T07:33:12.443Z,93.50
2017-12-28T07:35:39.876Z,93.40
2017-12-28T07:38:07.336Z,93.60
2017-12-28T07:40:34.769Z,93.60
2017-12-28T07:43:02.215Z,93.60
2017-12-28T07:45:29.673Z,93.80
2017-12-28T07:47:57.104Z,93.90
2017-12-28T07:50:24.727Z,93.80
2017-12-28T07:52:55.018Z,94.00
2017-12-28T07:55:22.577Z,94.00
2017-12-28T07:57:50.785Z,93.90
2017-12-28T08:00:18.229Z,93.80
2017-12-28T08:02:45.781Z,93.80
2017-12-28T08:05:14.318Z,93.90
2017-12-28T08:07:41.762Z,93.40
2017-12-28T08:10:09.208Z,93.20
2017-12-28T08:12:36.660Z,93.10
2017-12-28T08:15:04.117Z,93.00
2017-12-28T08:17:31.584Z,93.10
2017-12-28T08:19:59.030Z,92.90
2017-12-28T08:22:26.499Z,92.80
2017-12-28T08:24:53.949Z,92.80
2017-12-28T08:27:21.412Z,92.80
2017-12-28T08:29:48.969Z,92.60
2017-12-28T08:32:16.416Z,92.40
2017-12-28T08:34:43.871Z,92.10
2017-12-28T08:37:11.300Z,92.10
2017-12-28T08:39:38.762Z,92.20
2017-12-28T08:42:06.204Z,92.10
2017-12-28T08:44:33.666Z,91.90
2017-12-28T08:47:01.121Z,91.80
2017-12-28T08:49:28.607Z,91.90
2017-12-28T08:51:56.071Z,91.90
2017-12-28T08:54:23.530Z,92.00
2017-12-28T08:56:50.972Z,91.80
2017-12-28T08:59:18.426Z,91.30
2017-12-28T09:01:45.857Z,90.70
2017-12-28T09:04:13.327Z,91.00
2017-12-28T09:06:40.761Z,90.90
2017-12-28T09:09:08.204Z,90.80
2017-12-28T09:11:35.927Z,90.80
2017-12-28T09:14:03.351Z,90.70
2017-12-28T09:16:30.830Z,90.90
2017-12-28T09:18:58.248Z,90.60
2017-12-28T09:21:25.724Z,90.80
2017-12-28T09:23:53.357Z,90.90
2017-12-28T09:26:20.809Z,90.70
2017-12-28T09:28:48.310Z,90.70
2017-12-28T09:31:15.776Z,90.80
2017-12-28T09:33:43.226Z,90.60
2017-12-28T09:36:10.692Z,90.90
2017-12-28T09:38:38.137Z,90.70
2017-12-28T09:41:05.580Z,90.50
2017-12-28T09:43:33.019Z,90.50
2017-12-28T09:46:00.455Z,90.60
2017-12-28T09:48:28.664Z,90.40
2017-12-28T09:50:56.881Z,90.60
2017-12-28T09:53:24.344Z,90.50
2017-12-28T09:55:51.772Z,91.00
2017-12-28T09:58:19.226Z,91.50
2017-12-28T10:00:46.711Z,91.60
2017-12-28T10:03:14.166Z,91.50
2017-12-28T10:05:41.588Z,91.80
2017-12-28T10:08:09.048Z,92.20
2017-12-28T10:10:36.489Z,92.80
2017-12-28T10:13:04.159Z,93.20
2017-12-28T10:15:31.632Z,93.50
2017-12-28T10:17:59.076Z,93.00
2017-12-28T10:20:26.532Z,93.10
2017-12-28T10:22:53.986Z,93.00
2017-12-28T10:25:21.482Z,93.20
2017-12-28T10:27:48.933Z,93.10
2017-12-28T10:30:16.368Z,92.60
2017-12-28T10:32:43.811Z,91.90
2017-12-28T10:35:11.244Z,91.60
2017-12-28T10:37:38.701Z,91.50
2017-12-28T10:40:06.154Z,91.70
2017-12-28T10:42:33.627Z,91.50
2017-12-28T10:45:01.100Z,91.00
2017-12-28T10:47:29.307Z,91.20
2017-12-28T10:49:56.760Z,91.00
2017-12-28T10:52:24.205Z,90.60
2017-12-28T10:54:53.201Z,88.00
2017-12-28T10:57:20.682Z,87.90
2017-12-28T10:59:48.119Z,87.30
2017-12-28T11:02:15.589Z,87.10
2017-12-28T11:04:43.030Z,88.60
2017-12-28T11:07:10.568Z,88.40
2017-12-28T11:09:38.042Z,87.50
2017-12-28T11:12:05.490Z,87.90
2017-12-28T11:14:32.972Z,88.10
2017-12-28T11:17:00.406Z,86.70
2017-12-28T11:19:27.841Z,86.80
2017-12-28T11:21:55.297Z,86.00
2017-12-28T11:24:22.755Z,85.60
2017-12-28T11:26:50.190Z,85.60
2017-12-28T11:29:17.634Z,85.70
2017-12-28T11:31:45.066Z,85.80
2017-12-28T11:34:12.743Z,87.00
2017-12-28T11:36:40.208Z,86.40
2017-12-28T11:39:07.660Z,86.60
2017-12-28T11:41:35.101Z,86.30
2017-12-28T11:44:02.571Z,86.80
2017-12-28T11:46:30.006Z,87.30
2017-12-28T11:48:57.459Z,86.20
2017-12-28T11:51:24.922Z,85.90
2017-12-28T11:53:58.290Z,85.70
2017-12-28T11:56:31.273Z,84.70
2017-12-28T11:59:12.235Z,84.60
2017-12-28T12:01:58.489Z,82.90
2017-12-28T12:04:25.915Z,83.70
2017-12-28T12:06:59.078Z,83.00
2017-12-28T12:09:26.539Z,84.30
2017-12-28T12:11:53.987Z,84.50
2017-12-28T12:14:21.442Z,84.50
2017-12-28T12:16:48.872Z,84.50
2017-12-28T12:19:17.085Z,85.60
2017-12-28T12:21:44.530Z,85.50
2017-12-28T12:24:12.767Z,84.90
2017-12-28T12:26:40.205Z,84.80
2017-12-28T12:29:07.653Z,84.40
2017-12-28T12:31:35.105Z,83.90
2017-12-28T12:34:02.548Z,84.20
2017-12-28T12:36:30.751Z,84.20
2017-12-28T12:38:58.212Z,84.10
2017-12-28T12:41:25.652Z,84.50
2017-12-28T12:43:53.882Z,83.90
2017-12-28T12:46:21.308Z,83.90
2017-12-28T12:48:48.767Z,83.60
2017-12-28T12:51:16.201Z,82.10
2017-12-28T12:53:43.633Z,80.70
2017-12-28T12:56:11.174Z,80.20
2017-12-28T12:58:38.640Z,80.20
2017-12-28T13:01:06.093Z,80.50
2017-12-28T13:03:33.888Z,79.50
2017-12-28T13:06:01.341Z,78.90
2017-12-28T13:08:28.794Z,76.20
2017-12-28T13:10:56.235Z,76.50
2017-12-28T13:13:23.689Z,76.00
2017-12-28T13:15:51.151Z,76.00
2017-12-28T13:18:19.820Z,75.30
2017-12-28T13:20:47.301Z,74.20
2017-12-28T13:23:14.736Z,73.50
2017-12-28T13:25:42.171Z,72.50
2017-12-28T13:28:09.615Z,71.60
2017-12-28T13:30:37.057Z,72.60
2017-12-28T13:33:04.508Z,73.20
2017-12-28T13:35:31.949Z,72.60
2017-12-28T13:37:59.415Z,71.00
2017-12-28T13:40:26.865Z,71.30
2017-12-28T13:42:54.302Z,71.40
2017-12-28T13:45:21.768Z,72.30
2017-12-28T13:47:49.223Z,72.00
2017-12-28T13:50:16.674Z,71.50
2017-12-28T13:52:44.232Z,71.80
2017-12-28T13:55:11.664Z,71.00
2017-12-28T13:57:39.108Z,70.10
2017-12-28T14:00:06.546Z,70.60
2017-12-28T14:02:33.984Z,70.50
2017-12-28T14:05:01.455Z,70.00
2017-12-28T14:07:28.900Z,68.70
2017-12-28T14:09:56.341Z,68.90
2017-12-28T14:12:23.824Z,69.20
2017-12-28T14:14:52.209Z,70.20
2017-12-28T14:17:21.415Z,70.20
2017-12-28T14:19:48.846Z,69.80
2017-12-28T14:22:16.585Z,70.00
2017-12-28T14:24:44.801Z,71.00
2017-12-28T14:27:12.254Z,70.90
2017-12-28T14:29:39.702Z,70.50
2017-12-28T14:32:07.155Z,68.90
2017-12-28T14:34:35.353Z,69.40
2017-12-28T14:37:02.807Z,69.20
2017-12-28T14:39:30.393Z,68.90
2017-12-28T14:41:57.860Z,68.60
2017-12-28T14:44:25.314Z,67.00
2017-12-28T14:46:52.756Z,63.90
2017-12-28T14:49:20.200Z,61.40
2017-12-28T14:51:47.635Z,60.10
2017-12-28T14:54:15.111Z,59.70
2017-12-28T14:56:42.542Z,58.90
2017-12-28T14:59:09.977Z,58.00
2017-12-28T15:01:37.444Z,58.60
2017-12-28T15:04:04.909Z,59.60
2017-12-28T15:06:32.352Z,60.40
2017-12-28T15:09:02.486Z,61.20
2017-12-28T15:11:30.034Z,61.60
2017-12-28T15:13:57.464Z,61.80
2017-12-28T15:16:24.915Z,61.20
2017-12-28T15:18:52.369Z,61.00
2017-12-28T15:21:19.808Z,61.80
2017-12-28T15:23:47.264Z,61.90
2017-12-28T15:26:14.723Z,62.30
2017-12-28T15:28:42.160Z,62.90
2017-12-28T15:31:09.605Z,63.30
2017-12-28T15:33:37.049Z,63.70
2017-12-28T15:36:04.491Z,64.50
2017-12-28T15:38:32.248Z,65.30
2017-12-28T15:40:59.697Z,65.30
2017-12-28T15:43:27.135Z,65.20
2017-12-28T15:45:54.573Z,65.60
2017-12-28T15:48:22.014Z,65.20
2017-12-28T15:50:49.571Z,65.60
2017-12-28T15:53:17.015Z,65.40
2017-12-28T15:55:44.463Z,65.50
2017-12-28T15:58:11.896Z,65.60
2017-12-28T16:00:39.499Z,65.90
2017-12-28T16:03:06.953Z,66.40
2017-12-28T16:05:34.399Z,66.60
2017-12-28T16:08:01.847Z,67.30
2017-12-28T16:10:29.301Z,68.20
2017-12-28T16:12:56.761Z,68.60
2017-12-28T16:15:24.216Z,68.80
2017-12-28T16:17:51.661Z,69.30
2017-12-28T16:20:19.154Z,69.30
2017-12-28T16:22:46.538Z,69.40
2017-12-28T16:25:13.972Z,69.30
2017-12-28T16:27:41.421Z,69.40
2017-12-28T16:30:08.868Z,69.60
2017-12-28T16:32:36.312Z,69.90
2017-12-28T16:35:03.767Z,69.80
2017-12-28T16:37:33.945Z,69.70
2017-12-28T16:40:01.385Z,70.20
2017-12-28T16:42:28.829Z,70.30
2017-12-28T16:44:56.260Z,70.70
2017-12-28T16:47:23.752Z,71.00
2017-12-28T16:52:24.665Z,71.50
2017-12-28T16:54:52.116Z,72.60
2017-12-28T16:57:19.549Z,72.10
2017-12-28T16:59:47.770Z,72.90
2017-12-28T17:02:15.739Z,72.90
2017-12-28T17:04:43.173Z,73.20
2017-12-28T17:07:11.387Z,73.80
2017-12-28T17:09:38.833Z,73.70
2017-12-28T17:12:06.288Z,74.10
2017-12-28T17:14:33.724Z,74.40
2017-12-28T17:17:02.781Z,75.10
2017-12-28T17:19:30.171Z,75.10
2017-12-28T17:21:57.920Z,75.50
2017-12-28T17:24:25.502Z,76.20
2017-12-28T17:26:52.942Z,76.80
2017-12-28T17:29:20.398Z,77.20
2017-12-28T17:31:47.824Z,77.90
2017-12-28T17:34:15.286Z,78.60
2017-12-28T17:36:42.733Z,78.90
2017-12-28T17:39:10.951Z,79.40
2017-12-28T17:41:38.401Z,79.30
2017-12-28T17:44:05.848Z,79.60
2017-12-28T17:46:33.293Z,80.50
2017-12-28T17:49:00.752Z,80.00
2017-12-28T17:51:28.188Z,80.00
2017-12-28T17:53:55.738Z,80.10
2017-12-28T17:56:23.194Z,80.20
2017-12-28T17:58:50.657Z,80.20
2017-12-28T18:01:18.100Z,80.60
2017-12-28T18:03:45.556Z,81.00
2017-12-28T18:06:13.000Z,81.30
2017-12-28T18:08:40.439Z,81.60
2017-12-28T18:11:07.872Z,82.00
2017-12-28T18:13:35.335Z,82.00
2017-12-28T18:16:02.785Z,81.90
2017-12-28T18:18:30.243Z,81.20
2017-12-28T18:20:57.684Z,81.20
2017-12-28T18:23:25.172Z,81.10
2017-12-28T18:25:52.617Z,81.20
2017-12-28T18:28:20.064Z,80.90
2017-12-28T18:30:47.525Z,80.90
2017-12-28T18:33:14.981Z,81.00
2017-12-28T18:35:42.451Z,81.00
2017-12-28T18:38:09.915Z,81.10
2017-12-28T18:40:37.393Z,81.10
2017-12-28T18:43:04.828Z,80.70
2017-12-28T18:45:32.278Z,80.80
2017-12-28T18:47:59.720Z,81.00
2017-12-28T18:50:27.164Z,81.00
2017-12-28T18:52:54.604Z,81.10
2017-12-28T18:55:22.069Z,81.00
2017-12-28T18:57:49.504Z,81.30
2017-12-28T19:00:16.939Z,81.30
2017-12-28T19:02:44.393Z,81.60
2017-12-28T19:05:11.845Z,81.70
2017-12-28T19:07:39.276Z,81.70
2017-12-28T19:10:06.729Z,81.80
2017-12-28T19:12:34.185Z,81.90
2017-12-28T19:15:01.628Z,81.90
2017-12-28T19:17:29.070Z,82.10
2017-12-28T19:19:57.269Z,82.50
2017-12-28T19:22:24.711Z,82.40
2017-12-28T19:24:52.174Z,82.60
2017-12-28T19:27:19.613Z,82.70
2017-12-28T19:29:47.048Z,82.70
2017-12-28T19:32:15.009Z,82.80
2017-12-28T19:34:42.458Z,82.90
2017-12-28T19:37:09.900Z,82.90
2017-12-28T19:39:37.368Z,83.00
2017-12-28T19:42:04.821Z,83.00
2017-12-28T19:44:32.265Z,83.00
2017-12-28T19:46:59.730Z,83.20
2017-12-28T19:49:27.179Z,83.20
2017-12-28T19:51:54.624Z,83.30
2017-12-28T19:54:22.083Z,83.60
2017-12-28T19:56:49.509Z,83.80
2017-12-28T19:59:16.981Z,83.90
2017-12-28T20:01:44.423Z,84.00
2017-12-28T20:04:11.894Z,84.10
2017-12-28T20:06:39.346Z,84.00
2017-12-28T20:09:10.360Z,84.20
2017-12-28T20:11:38.580Z,83.90
2017-12-28T20:14:06.019Z,83.80
2017-12-28T20:16:33.485Z,84.00
2017-12-28T20:19:00.929Z,84.10
2017-12-28T20:21:28.375Z,84.30
2017-12-28T20:23:55.854Z,84.80
2017-12-28T20:26:23.298Z,85.20
2017-12-28T20:28:50.744Z,85.40
2017-12-28T20:31:18.183Z,85.90
2017-12-28T20:33:45.652Z,86.30
2017-12-28T20:36:13.109Z,86.40
2017-12-28T20:38:40.569Z,86.50
2017-12-28T20:41:08.051Z,86.60
2017-12-28T20:43:35.493Z,86.50
2017-12-28T20:46:02.955Z,86.70
2017-12-28T20:48:30.404Z,86.60
2017-12-28T20:50:57.868Z,86.50
2017-12-28T20:53:25.303Z,86.40
2017-12-28T20:55:52.748Z,86.30
2017-12-28T20:58:20.181Z,86.40
2017-12-28T21:00:47.629Z,86.50
2017-12-28T21:03:15.075Z,86.90
2017-12-28T21:05:42.527Z,87.20
2017-12-28T21:08:09.981Z,87.20
2017-12-28T21:10:37.433Z,87.30
2017-12-28T21:13:04.896Z,87.30
2017-12-28T21:15:32.342Z,87.30
2017-12-28T21:18:00.549Z,87.50
2017-12-28T21:20:28.004Z,87.40
2017-12-28T21:22:55.441Z,87.70
2017-12-28T21:25:23.978Z,88.20
2017-12-28T21:27:51.439Z,88.10
2017-12-28T21:30:18.889Z,88.30
2017-12-28T21:32:46.332Z,88.50
2017-12-28T21:35:13.777Z,88.60
2017-12-28T21:37:41.233Z,88.70
2017-12-28T21:40:08.677Z,88.90
2017-12-28T21:42:36.163Z,89.10
2017-12-28T21:45:03.592Z,89.20
2017-12-28T21:47:31.019Z,89.30
2017-12-28T21:49:58.476Z,89.30
2017-12-28T21:52:25.926Z,89.50
2017-12-28T21:54:53.722Z,89.40
2017-12-28T21:57:21.181Z,89.40
2017-12-28T21:59:48.613Z,89.40
2017-12-28T22:02:16.064Z,89.50
2017-12-28T22:04:43.507Z,89.70
2017-12-28T22:07:10.948Z,89.80
2017-12-28T22:09:38.420Z,89.90
2017-12-28T22:12:05.883Z,90.00
2017-12-28T22:14:33.344Z,90.00
2017-12-28T22:17:00.781Z,90.00
2017-12-28T22:19:28.214Z,90.10
2017-12-28T22:21:55.681Z,90.10
2017-12-28T22:24:23.137Z,90.20
2017-12-28T22:26:50.579Z,90.20
2017-12-28T22:29:18.024Z,90.10
2017-12-28T22:31:45.473Z,90.10
2017-12-28T22:34:12.934Z,90.00
2017-12-28T22:36:40.380Z,89.80
2017-12-28T22:39:08.419Z,89.70
2017-12-28T22:41:35.874Z,89.60
2017-12-28T22:44:03.323Z,89.60
2017-12-28T22:46:30.769Z,89.50
2017-12-28T22:48:58.959Z,89.60
2017-12-28T22:51:26.396Z,89.40
2017-12-28T22:53:54.728Z,89.60
2017-12-28T22:56:22.152Z,90.10
2017-12-28T22:58:50.370Z,90.00
2017-12-28T23:01:17.813Z,89.90
2017-12-28T23:03:46.446Z,90.10
2017-12-28T23:06:13.909Z,90.20
2017-12-28T23:08:41.342Z,90.20
2017-12-28T23:11:08.799Z,90.30
2017-12-28T23:13:36.240Z,90.40
2017-12-28T23:16:03.681Z,90.50
2017-12-28T23:18:31.896Z,90.50
2017-12-28T23:20:59.335Z,90.50
2017-12-28T23:23:26.792Z,90.50
2017-12-28T23:25:54.238Z,90.40
2017-12-28T23:28:21.682Z,90.50
2017-12-28T23:30:49.117Z,90.40
2017-12-28T23:33:16.540Z,90.40
2017-12-28T23:35:44.010Z,90.40
2017-12-28T23:38:11.440Z,90.40
2017-12-28T23:40:38.884Z,90.40
2017-12-28T23:43:06.336Z,90.40
2017-12-28T23:45:33.792Z,90.40
2017-12-28T23:48:01.314Z,90.50
2017-12-28T23:50:28.745Z,90.80
2017-12-28T23:52:56.180Z,90.80
2017-12-28T23:55:23.630Z,90.40
2017-12-28T23:57:51.088Z,90.50
